Westport, California
Current Conditions -  °F | °C
As of 5:10 PM on Saturday 25 Oct 2014 (Local Time) from KUKI Reporting Station
Overcast Overcast  
Wind Chill: 61°   Ceiling: 4100
Heat Index: 61°   Visibility: 10mi
Dew Point: 53°   Wind: 6mph
Humidity: 75%   Direction: 150°SSE
Pressure: 30.02"   Gusts: NA
Location:  39.64°N, 123.79°W
Report Text: KUKI 260010Z AUTO 15005KT 10SM SCT029 OVC041 16/12 A3002 RMK AO2 RAE03 P0000 T01610117
Loading
Personal Weather Stations






























Interactive Weather Map
Tropical Storm Tracking
New forecast layout! Learn more

10-Day Weather Forecast

Advertisements
Track Severe Weather on mobile